Ironbound, New Jersey
Current Conditions -  °F | °C
As of 6:51 PM on Monday 20 Oct 2014 (Local Time) from KEWR Reporting Station
Broken Clouds Broken Clouds  
Wind Chill: 56°   Ceiling: 25000
Heat Index: 56°   Visibility: 10mi
Dew Point: 37°   Wind: 8mph
Humidity: 49%   Direction: 200°SSW
Pressure: 29.97"   Gusts: NA
Location:  40.7236°N, 74.1407°W
Report Text: KEWR 202251Z 20007KT 10SM FEW140 SCT190 BKN250 13/03 A2997 RMK AO2 SLP149 T01330028
Loading
Personal Weather Stations






























Interactive Weather Map
Tropical Storm Tracking
New forecast layout! Learn more

10-Day Weather Forecast

Advertisements
Track Severe Weather on mobile